Fort Lauderdale, FL (33336)

11:32 AM EST on November 26, 2014 (GMT -0500)
Wilton Manors Weather | Change Station
CLOSE
Current Station
Personal Weather Station
Location: Wilton Manors, FL
Elevation: 6 ft
Nearby Weather Stations

Elev 6 ft 26.16 °N, 80.15 °W | Updated 4 seconds ago

Rain
Rain
70.0 °F
Feels Like 70.0 °F
N
6.0
Wind Variable Wind from NNW
Gusts 6.0 mph

Today
High -- | Low -- °F
--% Chance of Precip.
Yesterday
High -- | Low -- °F
Precip. -- in
6:47 AM 5:28 PM
Waxing Crescent, 21% visible
Pressure 30.09 in
Visibility 10.0 miles
Clouds Mostly Cloudy 800 ft
Overcast 1700 ft
Dew Point 67 °F
Humidity 91%
Rainfall 0.25 in
Snow Depth Not available.
UV 2 out of 12
Pollen 1.10 out of 12
Air Quality Not available.
Flu Activity Not available.
METAR KFXE 261553Z 30009KT 10SM BKN008 OVC017 21/18 A3008 RMK AO2 RAE49 SLP188 P0003 T02060183

More Conditions Fewer Conditions

Pressure 30.09 in
Visibility 10.0 miles
Clouds Mostly Cloudy 800 ft
Overcast 1700 ft
Dew Point 67 °F
Humidity 91%
Rainfall 0.25 in
Snow Depth Not available.
UV 2 out of 12
Pollen 1.10 out of 12
Air Quality Not available.
Flu Activity Not available.
METAR KFXE 261553Z 30009KT 10SM BKN008 OVC017 21/18 A3008 RMK AO2 RAE49 SLP188 P0003 T02060183

More Conditions Fewer Conditions

Nowcast | as of 10:03 am EST on November 26, 2014

Isolated to scattered showers will continue to move east northeast at 30 to 35 mph from the Gulf of Mexico into Mainland South Florida through late this morning. Wind gusts up to 20 mph along with rainfall amounts up to tenth of an inch can be expected with the showers. Mariners in the Gulf of Mexico can also expect higher seas in and near the showers.

×

10-Day Weather Forecast

Almanac

Astronomy

Nov. 26, 2014 Rise Set
Actual Time
Civil Twilight
Nautical Twilight
Astronomical Twilight
Moon
Length of Visible Light
Length of Day
Tomorrow will be .
, % of the Moon is Illuminated

Today's Extremes

State Highs State Lows

Community

WunderPhotos

Upload Photos

1,773,789 photos uploaded!

WunderBlogs® & News

Nearby

Air Quality

  Air Quality AQ Index Pollutant
Not available.

Snow Depth

Station Depth Elevation

Earthquake Activity

City Distance Mag. Time & Date
Minimum magnitude displayed is 2.5.

Coastal Water Temperatures

Place Temperature

Nearby Weather Stations